Time;durP1;ratioP1;P1;durP2;ratioP2;P2;SDS_P1;SDS_P2;PMS_P1;PMS_P2;Temp;Humidity;BMP_temperature;BMP_pressure;BME280_temperature;BME280_humidity;BME280_pressure;Samples;Min_cycle;Max_cycle;Signal;HPM_P1;HPM_P2
2022/10/12 00:00:38;;;;;;;27.50;11.30;;;12.40;99.90;;;;;;5052220;28;20521;-65
2022/10/12 00:03:04;;;;;;;25.03;10.80;;;12.30;99.90;;;;;;5053214;28;20184;-65
2022/10/12 00:05:29;;;;;;;22.03;10.13;;;12.30;99.90;;;;;;5052957;28;20201;-65
2022/10/12 00:07:55;;;;;;;18.97;9.77;;;12.30;99.90;;;;;;5052707;28;20667;-65
2022/10/12 00:10:20;;;;;;;20.63;9.30;;;12.30;99.90;;;;;;5039972;28;20212;-65
2022/10/12 00:12:46;;;;;;;20.53;10.30;;;12.30;99.90;;;;;;5041509;28;20170;-65
2022/10/12 00:15:11;;;;;;;21.17;10.50;;;12.20;99.90;;;;;;5052863;28;20266;-65
2022/10/12 00:17:37;;;;;;;21.23;9.70;;;12.20;99.90;;;;;;5039748;28;20658;-65
2022/10/12 00:20:04;;;;;;;21.80;10.83;;;12.20;99.90;;;;;;5053032;28;20278;-65
2022/10/12 00:22:30;;;;;;;20.30;11.30;;;12.20;99.90;;;;;;5052757;28;20186;-65
2022/10/12 00:24:55;;;;;;;21.37;10.53;;;12.20;99.90;;;;;;5052636;28;20466;-65
2022/10/12 00:27:21;;;;;;;21.77;10.83;;;12.20;99.90;;;;;;5052995;28;20416;-65
2022/10/12 00:29:47;;;;;;;26.00;11.17;;;12.10;99.90;;;;;;5052581;28;20192;-65
2022/10/12 00:32:12;;;;;;;18.50;9.87;;;12.00;99.90;;;;;;5052287;28;20186;-65
2022/10/12 00:34:38;;;;;;;21.83;10.17;;;12.00;99.90;;;;;;5052644;28;20186;-65
2022/10/12 00:37:04;;;;;;;24.40;11.50;;;11.90;99.90;;;;;;5033637;28;20190;-65
2022/10/12 00:39:29;;;;;;;23.80;12.17;;;12.00;99.90;;;;;;5045273;28;20186;-65
2022/10/12 00:41:55;;;;;;;17.87;9.43;;;11.90;99.90;;;;;;5047752;28;20209;-65
2022/10/12 00:44:42;;;;;;;23.03;9.80;;;11.90;99.90;;;;;;5052002;28;20701;-65
2022/10/12 00:47:23;;;;;;;19.37;9.90;;;11.80;99.90;;;;;;5040661;28;20177;-65
2022/10/12 00:50:10;;;;;;;22.77;11.27;;;11.70;99.90;;;;;;5052152;28;20944;-65
2022/10/12 00:52:42;;;;;;;22.63;10.97;;;11.70;99.90;;;;;;5051451;28;20400;-65
2022/10/12 00:55:11;;;;;;;15.13;8.70;;;11.70;99.90;;;;;;5051585;28;20470;-65
2022/10/12 00:57:37;;;;;;;27.90;10.20;;;11.70;99.90;;;;;;5051900;28;20424;-65
2022/10/12 01:00:07;;;;;;;20.20;10.90;;;11.60;99.90;;;;;;5042349;28;20424;-65
2022/10/12 01:02:34;;;;;;;27.97;12.97;;;11.60;99.90;;;;;;5030895;28;20273;-65
2022/10/12 01:05:01;;;;;;;34.50;11.87;;;11.60;99.90;;;;;;5051060;28;20464;-65
2022/10/12 01:07:27;;;;;;;20.17;10.60;;;11.50;99.90;;;;;;5052119;28;20516;-65
2022/10/12 01:09:52;;;;;;;23.37;9.33;;;11.40;99.90;;;;;;5042569;28;20496;-65
2022/10/12 01:12:19;;;;;;;33.20;11.10;;;11.40;99.90;;;;;;5036470;28;20261;-65
2022/10/12 01:14:44;;;;;;;21.40;10.67;;;11.30;99.90;;;;;;5051463;28;20189;-65
2022/10/12 01:17:37;;;;;;;19.03;10.10;;;11.20;99.90;;;;;;5052273;28;20442;-65
2022/10/12 01:20:21;;;;;;;26.13;10.13;;;11.20;99.90;;;;;;5038979;28;20186;-65
2022/10/12 01:23:04;;;;;;;23.30;11.40;;;11.10;99.90;;;;;;5040365;28;20420;-65
2022/10/12 01:25:57;;;;;;;21.23;8.90;;;11.10;99.90;;;;;;5051959;28;21202;-65
2022/10/12 01:28:29;;;;;;;23.00;10.50;;;11.10;99.90;;;;;;5050251;28;20523;-65
2022/10/12 01:31:02;;;;;;;25.53;11.43;;;11.00;99.90;;;;;;5032104;28;20421;-65
2022/10/12 01:33:35;;;;;;;21.00;10.57;;;11.00;99.90;;;;;;5047372;28;20970;-65
2022/10/12 01:36:15;;;;;;;18.60;10.07;;;11.00;99.90;;;;;;5052049;28;20427;-65
2022/10/12 01:39:10;;;;;;;22.90;10.63;;;11.10;99.90;;;;;;5046340;28;20953;-65
2022/10/12 01:41:59;;;;;;;19.50;10.10;;;11.10;99.90;;;;;;5036507;28;20467;-65
2022/10/12 01:44:26;;;;;;;29.90;11.17;;;11.20;99.90;;;;;;5031519;28;21171;-65
2022/10/12 01:46:54;;;;;;;18.07;10.60;;;11.20;99.90;;;;;;5032410;28;20929;-65
2022/10/12 01:49:24;;;;;;;14.63;9.43;;;11.20;99.90;;;;;;5038678;28;20891;-65
2022/10/12 01:52:02;;;;;;;28.13;11.23;;;11.30;99.90;;;;;;5038248;28;20428;-65
2022/10/12 01:54:45;;;;;;;16.33;10.73;;;11.30;99.90;;;;;;5051464;28;20432;-65
2022/10/12 01:57:16;;;;;;;20.10;10.60;;;11.40;99.90;;;;;;5054114;28;20924;-65
2022/10/12 01:59:48;;;;;;;22.03;10.93;;;11.40;99.90;;;;;;5046404;28;20502;-65
2022/10/12 02:02:29;;;;;;;28.80;11.77;;;11.40;99.90;;;;;;5053320;28;20435;-65
2022/10/12 02:05:11;;;;;;;22.77;11.57;;;11.40;99.90;;;;;;5044562;28;20467;-65
2022/10/12 02:07:46;;;;;;;25.53;11.17;;;11.50;99.90;;;;;;5050814;28;20421;-65
2022/10/12 02:10:20;;;;;;;19.33;9.87;;;11.40;99.90;;;;;;5034874;28;20420;-65
2022/10/12 02:12:48;;;;;;;29.90;13.40;;;11.50;99.90;;;;;;5036959;28;20435;-65
2022/10/12 02:15:15;;;;;;;22.23;10.97;;;11.50;99.90;;;;;;5048872;28;20428;-65
2022/10/12 02:17:45;;;;;;;32.73;11.63;;;11.50;99.90;;;;;;5055599;28;20432;-65
2022/10/12 02:20:14;;;;;;;21.97;12.23;;;11.50;99.90;;;;;;5055160;28;20455;-65
2022/10/12 02:22:41;;;;;;;24.47;12.80;;;11.60;99.90;;;;;;5047039;28;20452;-65
2022/10/12 02:25:10;;;;;;;25.47;12.47;;;11.60;99.90;;;;;;5050056;28;20463;-65
2022/10/12 02:27:40;;;;;;;20.93;11.90;;;11.60;99.90;;;;;;5055271;28;20427;-65
2022/10/12 02:30:07;;;;;;;28.53;12.20;;;11.70;99.90;;;;;;5054928;28;20420;-65
2022/10/12 02:33:01;;;;;;;23.83;11.30;;;11.70;99.90;;;;;;5054635;28;20502;-65
2022/10/12 02:35:42;;;;;;;23.70;12.10;;;11.70;99.90;;;;;;5055152;28;21134;-65
2022/10/12 02:38:31;;;;;;;28.10;14.33;;;11.70;99.90;;;;;;5041431;28;20470;-65
2022/10/12 02:41:01;;;;;;;34.60;13.93;;;11.70;99.90;;;;;;5055064;28;20447;-65
2022/10/12 02:43:52;;;;;;;28.70;12.50;;;11.80;99.90;;;;;;5053883;28;20463;-65
2022/10/12 02:46:19;;;;;;;29.97;14.53;;;11.70;99.90;;;;;;5039626;28;20555;-65
2022/10/12 02:48:46;;;;;;;42.63;16.57;;;11.80;99.90;;;;;;5033790;28;20421;-65
2022/10/12 02:51:13;;;;;;;34.30;13.50;;;11.70;99.90;;;;;;5050612;28;20423;-65
2022/10/12 02:53:39;;;;;;;29.40;15.10;;;11.70;99.90;;;;;;5054212;28;20420;-65
2022/10/12 02:56:10;;;;;;;29.07;14.60;;;11.70;99.90;;;;;;5054883;28;20444;-65
2022/10/12 02:58:36;;;;;;;34.93;14.67;;;11.80;99.90;;;;;;5054126;28;20436;-65
2022/10/12 03:01:02;;;;;;;56.50;15.70;;;11.80;99.90;;;;;;5054796;28;20503;-65
2022/10/12 03:03:28;;;;;;;34.00;13.67;;;11.70;99.90;;;;;;5053956;28;20194;-65
2022/10/12 03:05:53;;;;;;;33.57;14.23;;;11.80;99.90;;;;;;5050659;28;20225;-65
2022/10/12 03:08:19;;;;;;;30.17;14.97;;;11.70;99.90;;;;;;5044556;28;20186;-65
2022/10/12 03:10:45;;;;;;;30.20;13.07;;;11.70;99.90;;;;;;5054517;28;20189;-65
2022/10/12 03:13:10;;;;;;;46.10;16.93;;;11.70;99.90;;;;;;5043771;28;20193;-65
2022/10/12 03:15:36;;;;;;;39.80;15.27;;;11.70;99.90;;;;;;5034087;28;20209;-65
2022/10/12 03:18:02;;;;;;;32.53;14.73;;;11.70;99.90;;;;;;5034372;28;20210;-65
2022/10/12 03:20:27;;;;;;;34.20;13.97;;;11.70;99.90;;;;;;5050803;28;20201;-65
2022/10/12 03:22:53;;;;;;;29.63;15.70;;;11.70;99.90;;;;;;5053947;28;20232;-65
2022/10/12 03:25:18;;;;;;;47.23;16.57;;;11.70;99.90;;;;;;5040455;28;20299;-65
2022/10/12 03:27:44;;;;;;;38.00;15.47;;;11.70;99.90;;;;;;5054482;28;20178;-65
2022/10/12 03:30:10;;;;;;;50.70;16.37;;;11.80;99.90;;;;;;5053877;28;20186;-65
2022/10/12 03:32:37;;;;;;;37.77;16.97;;;11.70;99.90;;;;;;5051914;28;20634;-65
2022/10/12 03:35:03;;;;;;;35.63;15.87;;;11.70;99.90;;;;;;5053955;28;20424;-65
2022/10/12 03:37:29;;;;;;;38.60;16.40;;;11.70;99.90;;;;;;5054073;28;20467;-65
2022/10/12 03:39:54;;;;;;;37.97;16.50;;;11.70;99.90;;;;;;5037486;28;20453;-65
2022/10/12 03:42:20;;;;;;;41.37;18.00;;;11.80;99.90;;;;;;5038458;28;20205;-65
2022/10/12 03:44:45;;;;;;;37.07;16.43;;;11.70;99.90;;;;;;5037229;28;20279;-65
2022/10/12 03:47:11;;;;;;;42.87;17.37;;;11.70;99.90;;;;;;5041979;28;20194;-65
2022/10/12 03:49:36;;;;;;;54.97;19.60;;;11.70;99.90;;;;;;5051412;28;20178;-65
2022/10/12 03:52:02;;;;;;;40.17;17.20;;;11.70;99.90;;;;;;5042583;28;20283;-65
2022/10/12 03:54:28;;;;;;;49.50;21.00;;;11.70;99.90;;;;;;5053347;28;20219;-65
2022/10/12 03:56:53;;;;;;;38.37;14.90;;;11.70;99.90;;;;;;5053811;28;20197;-65
2022/10/12 03:59:19;;;;;;;35.40;18.57;;;11.70;99.90;;;;;;5050606;28;20213;-65
2022/10/12 04:01:44;;;;;;;36.23;16.63;;;11.70;99.90;;;;;;5052814;28;20285;-65
2022/10/12 04:04:10;;;;;;;40.50;18.30;;;11.70;99.90;;;;;;5050731;28;20548;-65
2022/10/12 04:06:36;;;;;;;33.23;16.37;;;11.70;99.90;;;;;;5042821;28;20256;-65
2022/10/12 04:09:02;;;;;;;51.70;18.30;;;11.70;99.90;;;;;;5050059;28;20443;-65
2022/10/12 04:11:28;;;;;;;36.53;18.03;;;11.70;99.90;;;;;;5032095;28;20190;-64
2022/10/12 04:13:53;;;;;;;40.10;17.07;;;11.70;99.90;;;;;;5050279;28;20419;-65
2022/10/12 04:16:19;;;;;;;43.87;18.43;;;11.70;99.90;;;;;;5044645;28;20181;-65
2022/10/12 04:18:44;;;;;;;30.50;14.80;;;11.70;99.90;;;;;;5048280;28;20174;-65
2022/10/12 04:21:13;;;;;;;40.77;16.80;;;11.70;99.90;;;;;;5053167;28;20180;-65
2022/10/12 04:23:39;;;;;;;41.57;17.80;;;11.70;99.90;;;;;;5052101;28;20628;-65
2022/10/12 04:26:05;;;;;;;35.87;16.83;;;11.70;99.90;;;;;;5053059;28;20467;-65
2022/10/12 04:28:31;;;;;;;45.43;16.37;;;11.70;99.90;;;;;;5036308;28;20443;-65
2022/10/12 04:30:57;;;;;;;34.83;14.30;;;11.70;99.90;;;;;;5042563;28;20837;-65
2022/10/12 04:33:22;;;;;;;37.27;15.17;;;11.70;99.90;;;;;;5049617;28;20245;-65
2022/10/12 04:35:48;;;;;;;34.67;16.17;;;11.60;99.90;;;;;;5033156;28;20191;-65
2022/10/12 04:38:14;;;;;;;32.77;16.97;;;11.60;99.90;;;;;;5032996;28;20197;-65
2022/10/12 04:40:39;;;;;;;42.00;16.87;;;11.60;99.90;;;;;;5032510;28;20565;-65
2022/10/12 04:43:05;;;;;;;37.23;17.00;;;11.60;99.90;;;;;;5041485;28;20181;-65
2022/10/12 04:45:30;;;;;;;44.43;16.87;;;11.60;99.90;;;;;;5032269;28;20623;-65
2022/10/12 04:47:56;;;;;;;27.93;14.00;;;11.60;99.90;;;;;;5046895;28;20227;-65
2022/10/12 04:50:22;;;;;;;31.50;13.13;;;11.60;99.90;;;;;;5052511;28;20260;-65
2022/10/12 04:52:48;;;;;;;29.53;13.87;;;11.60;99.90;;;;;;5051910;28;20173;-65
2022/10/12 04:55:13;;;;;;;28.17;12.87;;;11.60;99.90;;;;;;5052163;28;20951;-65
2022/10/12 04:57:39;;;;;;;24.00;12.07;;;11.50;99.90;;;;;;5039272;28;20209;-65
2022/10/12 05:00:06;;;;;;;30.97;12.13;;;11.50;99.90;;;;;;5051961;28;20187;-65
2022/10/12 05:02:32;;;;;;;27.80;12.77;;;11.50;99.90;;;;;;5049108;28;20267;-65
2022/10/12 05:04:58;;;;;;;22.50;11.90;;;11.50;99.90;;;;;;5041854;28;20543;-65
2022/10/12 05:07:24;;;;;;;29.33;11.53;;;11.60;99.90;;;;;;5050073;28;20265;-65
2022/10/12 05:09:49;;;;;;;24.07;11.30;;;11.50;99.90;;;;;;5044695;28;20208;-65
2022/10/12 05:12:15;;;;;;;25.87;12.40;;;11.60;99.90;;;;;;5051435;28;20765;-65
2022/10/12 05:14:43;;;;;;;24.70;13.07;;;11.60;99.90;;;;;;5051799;28;20197;-65
2022/10/12 05:17:09;;;;;;;24.67;12.43;;;11.60;99.90;;;;;;5050062;28;20233;-65
2022/10/12 05:19:34;;;;;;;19.90;10.70;;;11.60;99.90;;;;;;5032163;28;20915;-65
2022/10/12 05:22:00;;;;;;;20.17;10.63;;;11.60;99.90;;;;;;5047364;28;20521;-65
2022/10/12 05:24:26;;;;;;;23.63;12.13;;;11.60;99.90;;;;;;5042259;28;20249;-65
2022/10/12 05:26:51;;;;;;;30.00;12.07;;;11.70;99.90;;;;;;5047667;28;20209;-65
2022/10/12 05:29:17;;;;;;;29.50;14.20;;;11.70;99.90;;;;;;5051437;28;20635;-65
2022/10/12 05:31:42;;;;;;;25.03;13.80;;;11.70;99.90;;;;;;5048527;28;20192;-65
2022/10/12 05:34:08;;;;;;;25.80;11.50;;;11.70;99.90;;;;;;5040577;28;20178;-64
2022/10/12 05:36:34;;;;;;;25.87;11.67;;;11.80;99.90;;;;;;5051754;28;20574;-65
2022/10/12 05:38:59;;;;;;;22.90;10.97;;;11.70;99.90;;;;;;5050782;28;20181;-65
2022/10/12 05:41:25;;;;;;;20.53;11.33;;;11.80;99.90;;;;;;5049822;28;20277;-65
2022/10/12 05:43:52;;;;;;;19.97;10.27;;;11.80;99.90;;;;;;5050817;28;20522;-65
2022/10/12 05:46:17;;;;;;;20.63;11.30;;;11.80;99.90;;;;;;5051556;28;20212;-65
2022/10/12 05:48:43;;;;;;;21.43;11.63;;;11.80;99.90;;;;;;5048213;28;20420;-65
2022/10/12 05:51:08;;;;;;;23.20;11.37;;;11.80;99.90;;;;;;5049953;28;20715;-65
2022/10/12 05:53:34;;;;;;;19.60;10.57;;;11.80;99.90;;;;;;5031312;28;20633;-65
2022/10/12 05:56:00;;;;;;;22.03;11.23;;;11.80;99.90;;;;;;5044540;28;20257;-65
2022/10/12 05:58:28;;;;;;;29.07;12.00;;;11.90;99.90;;;;;;5036509;28;20185;-65
2022/10/12 06:00:54;;;;;;;18.40;11.40;;;11.80;99.90;;;;;;5040506;28;20532;-65
2022/10/12 06:03:20;;;;;;;29.10;12.77;;;11.80;99.90;;;;;;5049912;28;20899;-65
2022/10/12 06:05:46;;;;;;;24.53;10.30;;;11.80;99.90;;;;;;5037248;28;20465;-65
2022/10/12 06:08:12;;;;;;;24.87;12.30;;;11.90;99.90;;;;;;5050850;28;20470;-65
2022/10/12 06:10:43;;;;;;;17.23;9.47;;;11.90;99.90;;;;;;5034443;28;20265;-65
2022/10/12 06:13:09;;;;;;;17.70;9.83;;;11.90;99.90;;;;;;5042093;28;20417;-65
2022/10/12 06:15:35;;;;;;;19.10;9.10;;;11.90;99.90;;;;;;5047728;28;20768;-65
2022/10/12 06:18:01;;;;;;;21.40;10.30;;;11.90;99.90;;;;;;5037138;28;20185;-65
2022/10/12 06:20:27;;;;;;;21.63;10.60;;;11.90;99.90;;;;;;5047909;28;20421;-65
2022/10/12 06:22:52;;;;;;;25.30;11.90;;;11.90;99.90;;;;;;5050491;28;20197;-65
2022/10/12 06:25:18;;;;;;;25.63;11.50;;;11.90;99.90;;;;;;5050371;28;20232;-65
2022/10/12 06:27:44;;;;;;;27.13;11.17;;;12.00;99.90;;;;;;5048537;28;20644;-65
2022/10/12 06:30:11;;;;;;;21.50;10.20;;;12.00;99.90;;;;;;5050509;28;20174;-65
2022/10/12 06:32:36;;;;;;;21.90;10.17;;;12.00;99.90;;;;;;5050110;28;20428;-65
2022/10/12 06:35:02;;;;;;;17.60;9.07;;;12.10;99.90;;;;;;5035234;28;20432;-65
2022/10/12 06:37:28;;;;;;;21.63;10.30;;;12.00;99.90;;;;;;5040862;28;20189;-65
2022/10/12 06:39:54;;;;;;;21.77;8.80;;;12.10;99.90;;;;;;5050966;28;20655;-65
2022/10/12 06:42:20;;;;;;;20.10;11.20;;;12.10;99.90;;;;;;5051571;28;20443;-65
2022/10/12 06:44:46;;;;;;;23.63;10.90;;;12.10;99.90;;;;;;5054275;28;20205;-65
2022/10/12 06:47:11;;;;;;;30.93;11.90;;;12.10;99.90;;;;;;5053395;28;20243;-65
2022/10/12 06:49:37;;;;;;;21.07;10.47;;;12.10;99.90;;;;;;5052065;28;20182;-65
2022/10/12 06:52:03;;;;;;;20.50;10.10;;;12.20;99.90;;;;;;5044619;28;20526;-65
2022/10/12 06:54:28;;;;;;;18.80;10.07;;;12.20;99.90;;;;;;5041785;28;20263;-65
2022/10/12 06:56:54;;;;;;;19.50;9.40;;;12.30;99.90;;;;;;5045097;28;20449;-65
2022/10/12 06:59:21;;;;;;;24.43;11.27;;;12.30;99.90;;;;;;5046832;28;20213;-65
2022/10/12 07:01:48;;;;;;;20.87;10.63;;;12.40;99.90;;;;;;5054214;28;20213;-65
2022/10/12 07:04:14;;;;;;;18.30;9.10;;;12.40;99.90;;;;;;5037939;28;20439;-65
2022/10/12 07:06:40;;;;;;;24.43;11.50;;;12.40;99.90;;;;;;5034688;28;20433;-65
2022/10/12 07:09:05;;;;;;;17.57;9.00;;;12.40;99.90;;;;;;5037714;28;20416;-65
2022/10/12 07:11:31;;;;;;;19.73;10.70;;;12.40;99.90;;;;;;5054042;28;20208;-65
2022/10/12 07:13:57;;;;;;;23.77;10.87;;;12.50;99.90;;;;;;5040104;28;20181;-65
2022/10/12 07:16:22;;;;;;;22.13;10.50;;;12.50;99.90;;;;;;5052081;28;20221;-65
2022/10/12 07:18:48;;;;;;;20.90;9.50;;;12.60;99.90;;;;;;5043630;28;20177;-65
2022/10/12 07:21:14;;;;;;;23.93;10.97;;;12.60;99.90;;;;;;5054072;28;20189;-65
2022/10/12 07:23:39;;;;;;;22.37;11.37;;;12.50;99.90;;;;;;5053424;28;20189;-65
2022/10/12 07:26:06;;;;;;;23.27;10.40;;;12.60;99.90;;;;;;5054046;28;20209;-65
2022/10/12 07:28:34;;;;;;;16.47;10.23;;;12.70;99.90;;;;;;5052412;28;20781;-65
2022/10/12 07:31:01;;;;;;;22.43;9.47;;;12.70;99.90;;;;;;5053842;28;20435;-65
2022/10/12 07:33:29;;;;;;;20.57;10.13;;;12.70;99.90;;;;;;5046567;28;20417;-65
2022/10/12 07:35:54;;;;;;;37.00;13.50;;;12.70;99.90;;;;;;5044972;28;20906;-65
2022/10/12 07:38:20;;;;;;;22.70;11.93;;;12.80;99.90;;;;;;5053968;28;20431;-65
2022/10/12 07:40:46;;;;;;;28.17;11.47;;;12.80;99.90;;;;;;5053128;28;20192;-65
2022/10/12 07:43:12;;;;;;;26.67;11.53;;;12.80;99.90;;;;;;5052732;28;20200;-65
2022/10/12 07:45:38;;;;;;;21.60;11.73;;;12.90;99.90;;;;;;5053205;28;20957;-65
2022/10/12 07:48:04;;;;;;;29.57;12.07;;;13.00;99.90;;;;;;5052273;28;20182;-65
2022/10/12 07:50:29;;;;;;;24.57;12.57;;;13.00;99.90;;;;;;5053311;28;20554;-65
2022/10/12 07:52:56;;;;;;;27.93;12.03;;;13.10;99.90;;;;;;5052910;28;20184;-65
2022/10/12 07:55:21;;;;;;;17.10;9.67;;;13.10;99.90;;;;;;5052196;28;20177;-65
2022/10/12 07:57:47;;;;;;;23.50;11.07;;;13.10;99.90;;;;;;5053442;28;20426;-65
2022/10/12 08:00:13;;;;;;;19.67;10.80;;;13.20;99.90;;;;;;5053231;28;20182;-64
2022/10/12 08:02:39;;;;;;;34.23;10.93;;;13.30;99.90;;;;;;5053138;28;20663;-65
2022/10/12 08:05:05;;;;;;;27.93;12.20;;;13.40;99.90;;;;;;5053506;28;20205;-66
2022/10/12 08:07:30;;;;;;;19.00;9.67;;;13.30;99.90;;;;;;5053427;28;20257;-65
2022/10/12 08:09:56;;;;;;;27.47;11.40;;;13.30;99.90;;;;;;5053122;28;20331;-65
2022/10/12 08:12:21;;;;;;;17.73;9.20;;;13.40;99.90;;;;;;5052741;28;20636;-65
2022/10/12 08:14:47;;;;;;;24.13;10.80;;;13.30;99.90;;;;;;5052649;28;20186;-65
2022/10/12 08:17:13;;;;;;;15.67;8.40;;;13.40;99.90;;;;;;5049273;28;20284;-65
2022/10/12 08:19:38;;;;;;;27.83;10.63;;;13.50;99.90;;;;;;5051880;28;20671;-65
2022/10/12 08:22:04;;;;;;;26.53;10.73;;;13.50;99.90;;;;;;5049841;28;20182;-65
2022/10/12 08:24:29;;;;;;;17.27;9.43;;;13.60;99.90;;;;;;5043346;28;20866;-66
2022/10/12 08:26:55;;;;;;;19.57;9.90;;;13.60;99.90;;;;;;5044508;28;20220;-65
2022/10/12 08:29:20;;;;;;;19.00;9.80;;;13.60;99.90;;;;;;5039383;28;20174;-65
2022/10/12 08:31:49;;;;;;;24.60;10.00;;;13.60;99.90;;;;;;5051390;28;20181;-65
2022/10/12 08:34:15;;;;;;;26.40;9.57;;;13.60;99.90;;;;;;5050601;28;20201;-65
2022/10/12 08:36:41;;;;;;;18.53;10.83;;;13.60;99.90;;;;;;5051630;28;20405;-65
2022/10/12 08:39:07;;;;;;;34.37;9.83;;;13.60;99.90;;;;;;5051323;28;20416;-65
2022/10/12 08:42:00;;;;;;;19.67;9.97;;;13.70;99.90;;;;;;5050480;28;20222;-65
2022/10/12 08:44:38;;;;;;;28.30;10.33;;;13.70;99.90;;;;;;5048752;28;20464;-65
2022/10/12 08:47:22;;;;;;;16.50;7.27;;;13.70;99.90;;;;;;5049797;28;20526;-66
2022/10/12 08:49:49;;;;;;;36.03;8.57;;;13.70;99.90;;;;;;5047459;28;20493;-66
2022/10/12 08:52:36;;;;;;;15.90;7.97;;;13.80;99.90;;;;;;5049165;28;20422;-66
2022/10/12 08:55:35;;;;;;;17.83;8.40;;;13.70;99.90;;;;;;5046916;28;20417;-65
2022/10/12 08:58:01;;;;;;;17.07;7.93;;;13.80;99.90;;;;;;5048959;28;20481;-65
2022/10/12 09:00:30;;;;;;;17.20;8.73;;;13.80;99.90;;;;;;5052011;28;20926;-65
2022/10/12 09:03:07;;;;;;;18.90;8.40;;;13.70;99.90;;;;;;5051693;28;20424;-66
2022/10/12 09:05:58;;;;;;;15.00;7.13;;;13.70;99.90;;;;;;5047404;28;20859;-65
2022/10/12 09:08:34;;;;;;;13.23;6.70;;;13.80;99.90;;;;;;5042854;28;20416;-66
2022/10/12 09:11:18;;;;;;;25.93;7.90;;;13.80;99.90;;;;;;5042769;28;20445;-65
2022/10/12 09:13:47;;;;;;;18.07;7.93;;;13.80;99.90;;;;;;5047278;28;20448;-65
2022/10/12 09:16:22;;;;;;;15.23;8.63;;;13.90;99.90;;;;;;5043839;28;20425;-65
2022/10/12 09:19:08;;;;;;;20.20;7.57;;;14.00;99.90;;;;;;5048363;28;20464;-65
2022/10/12 09:21:34;;;;;;;10.23;6.63;;;14.00;99.90;;;;;;5031774;28;20417;-65
2022/10/12 09:24:02;;;;;;;24.30;7.57;;;13.90;99.90;;;;;;5045188;28;20421;-65
2022/10/12 09:26:30;;;;;;;12.57;7.10;;;14.00;99.90;;;;;;5043858;28;20564;-65
2022/10/12 09:28:57;;;;;;;24.97;9.10;;;14.00;99.90;;;;;;5042918;28;20922;-65
2022/10/12 09:31:34;;;;;;;15.93;7.27;;;14.00;99.90;;;;;;5051781;28;20412;-65
2022/10/12 09:34:04;;;;;;;16.80;7.07;;;13.90;99.90;;;;;;5039878;28;20412;-65
2022/10/12 09:36:40;;;;;;;16.00;7.53;;;13.90;99.90;;;;;;5047788;28;20415;-65
2022/10/12 09:39:18;;;;;;;14.23;7.90;;;14.00;99.90;;;;;;5048599;28;20416;-65
2022/10/12 09:41:46;;;;;;;15.40;6.67;;;14.00;99.90;;;;;;5044915;28;20454;-65
2022/10/12 09:44:39;;;;;;;16.10;7.00;;;14.00;99.90;;;;;;5044981;28;20515;-65
2022/10/12 09:47:25;;;;;;;15.33;7.13;;;14.00;99.90;;;;;;4995162;28;20429;-65
2022/10/12 09:49:52;;;;;;;21.40;7.83;;;14.10;99.90;;;;;;5031952;28;20418;-65
2022/10/12 09:52:23;;;;;;;31.33;9.27;;;14.10;99.90;;;;;;5042577;28;20417;-66
2022/10/12 09:54:56;;;;;;;13.33;5.93;;;14.10;99.90;;;;;;5047447;28;20439;-65
2022/10/12 09:57:32;;;;;;;10.73;5.90;;;14.20;99.90;;;;;;5047589;28;20455;-65
2022/10/12 10:00:00;;;;;;;17.70;7.33;;;14.30;99.90;;;;;;5047539;28;20836;-65
2022/10/12 10:02:26;;;;;;;20.57;7.27;;;14.30;99.90;;;;;;5049373;28;20512;-66
2022/10/12 10:04:53;;;;;;;14.33;5.87;;;14.40;99.90;;;;;;5041383;28;20970;-65
2022/10/12 10:07:19;;;;;;;19.10;7.80;;;14.30;99.90;;;;;;5045939;28;20412;-65
2022/10/12 10:09:45;;;;;;;12.20;6.73;;;14.40;99.90;;;;;;5049662;28;20415;-65
2022/10/12 10:12:17;;;;;;;16.37;7.27;;;14.60;99.90;;;;;;5050747;28;20190;-65
2022/10/12 10:14:43;;;;;;;21.43;6.97;;;14.50;99.90;;;;;;5050960;28;20490;-65
2022/10/12 10:17:14;;;;;;;36.90;6.90;;;14.40;99.90;;;;;;5031269;28;20433;-65
2022/10/12 10:19:48;;;;;;;22.30;7.50;;;14.50;99.90;;;;;;5035687;28;20427;-65
2022/10/12 10:22:14;;;;;;;14.43;6.60;;;14.60;99.90;;;;;;5053016;28;20779;-65
2022/10/12 10:24:39;;;;;;;10.70;6.00;;;14.70;99.90;;;;;;5043531;28;20552;-65
2022/10/12 10:27:06;;;;;;;19.43;6.80;;;14.80;99.90;;;;;;5048814;28;20259;-65
2022/10/12 10:29:31;;;;;;;14.97;6.60;;;14.80;99.90;;;;;;5046143;28;20277;-65
2022/10/12 10:32:25;;;;;;;14.90;6.10;;;14.80;99.90;;;;;;5054736;28;20515;-65
2022/10/12 10:35:19;;;;;;;18.07;4.93;;;14.80;99.90;;;;;;5055007;28;20194;-65
2022/10/12 10:37:51;;;;;;;16.57;7.47;;;15.00;99.90;;;;;;5055189;28;20477;-65
2022/10/12 10:40:22;;;;;;;17.80;5.97;;;15.00;99.90;;;;;;5054765;28;20416;-65
2022/10/12 10:42:55;;;;;;;21.80;7.57;;;14.80;99.90;;;;;;5054407;28;20914;-65
2022/10/12 10:45:41;;;;;;;13.63;5.37;;;14.90;99.90;;;;;;5034308;28;20946;-65
2022/10/12 10:48:16;;;;;;;22.80;7.23;;;14.90;99.90;;;;;;5051059;28;20412;-65
2022/10/12 10:50:48;;;;;;;14.10;5.83;;;14.90;99.90;;;;;;5055025;28;20431;-65
2022/10/12 10:53:25;;;;;;;18.30;6.63;;;15.10;99.90;;;;;;5048739;28;20413;-65
2022/10/12 10:56:22;;;;;;;14.20;5.30;;;14.90;99.90;;;;;;5048152;28;20512;-65
2022/10/12 10:58:50;;;;;;;15.20;6.60;;;14.90;99.90;;;;;;5024373;28;20438;-65
2022/10/12 11:01:51;;;;;;;16.90;6.37;;;14.90;99.90;;;;;;5036555;28;20478;-65
2022/10/12 11:04:24;;;;;;;15.33;7.40;;;14.90;99.90;;;;;;4986328;28;20447;-65
2022/10/12 11:06:54;;;;;;;12.00;5.80;;;15.00;99.90;;;;;;5054956;28;20902;-65
2022/10/12 11:09:30;;;;;;;18.67;6.17;;;15.00;99.90;;;;;;5036373;28;20475;-65
2022/10/12 11:12:06;;;;;;;19.50;5.83;;;15.00;99.90;;;;;;5046374;28;20447;-65
2022/10/12 11:14:42;;;;;;;16.93;5.40;;;15.00;99.90;;;;;;5016011;28;20812;-65
2022/10/12 11:17:19;;;;;;;14.10;6.17;;;15.00;99.90;;;;;;5049985;28;20462;-65
2022/10/12 11:20:02;;;;;;;8.83;5.53;;;15.00;99.90;;;;;;5045652;28;20439;-65
2022/10/12 11:23:01;;;;;;;10.67;6.27;;;15.10;99.90;;;;;;5033929;28;20444;-65
2022/10/12 11:25:38;;;;;;;13.37;6.50;;;15.10;99.90;;;;;;5011444;28;20815;-66
2022/10/12 11:28:06;;;;;;;10.47;5.20;;;15.20;99.90;;;;;;5045883;28;20416;-66
2022/10/12 11:30:40;;;;;;;12.43;4.77;;;15.20;99.90;;;;;;5052198;28;20470;-65
2022/10/12 11:33:11;;;;;;;12.27;4.33;;;15.20;99.90;;;;;;5053215;28;20420;-67
2022/10/12 11:35:41;;;;;;;12.43;4.37;;;15.20;99.90;;;;;;5054056;28;20404;-67
2022/10/12 11:38:14;;;;;;;16.10;5.77;;;15.20;99.90;;;;;;5052523;28;20528;-66
2022/10/12 11:40:48;;;;;;;17.80;5.50;;;15.30;99.90;;;;;;5040479;28;20433;-67
2022/10/12 11:43:32;;;;;;;19.03;5.80;;;15.30;99.90;;;;;;5045716;28;20466;-66
2022/10/12 11:46:04;;;;;;;17.27;5.23;;;15.20;99.90;;;;;;5053844;28;20864;-66
2022/10/12 11:48:40;;;;;;;8.93;4.50;;;15.30;99.90;;;;;;5039555;28;20416;-66
2022/10/12 11:51:06;;;;;;;15.87;5.87;;;15.30;99.90;;;;;;5053315;28;20407;-66
2022/10/12 11:54:02;;;;;;;11.17;4.67;;;15.40;99.90;;;;;;5053221;28;20416;-66
2022/10/12 11:56:57;;;;;;;26.03;6.00;;;15.50;99.90;;;;;;5053470;28;20186;-66
2022/10/12 11:59:41;;;;;;;11.27;4.63;;;15.60;99.90;;;;;;5050088;28;20436;-66
2022/10/12 12:02:17;;;;;;;10.97;4.90;;;15.60;99.90;;;;;;5052941;28;20422;-66
2022/10/12 12:04:45;;;;;;;13.00;5.23;;;15.50;99.90;;;;;;5040552;28;20475;-66
2022/10/12 12:07:35;;;;;;;8.17;4.83;;;15.50;99.90;;;;;;5053336;28;20454;-66
2022/10/12 12:10:26;;;;;;;13.83;5.57;;;15.40;99.90;;;;;;5053134;28;20412;-66
2022/10/12 12:13:13;;;;;;;10.07;4.73;;;15.60;99.90;;;;;;5038897;28;20416;-66
2022/10/12 12:15:46;;;;;;;8.80;4.73;;;15.70;99.90;;;;;;5049585;28;20408;-65
2022/10/12 12:18:20;;;;;;;10.97;5.20;;;15.60;99.90;;;;;;5052604;28;20435;-66
2022/10/12 12:20:46;;;;;;;12.43;4.83;;;15.50;99.90;;;;;;5039937;28;20430;-65
2022/10/12 12:23:27;;;;;;;9.63;4.70;;;15.40;99.90;;;;;;5050545;28;20416;-65
2022/10/12 12:26:11;;;;;;;16.30;5.83;;;15.70;99.90;;;;;;5039049;28;20212;-66
2022/10/12 12:28:43;;;;;;;6.93;4.63;;;15.70;99.90;;;;;;5038944;28;20869;-65
2022/10/12 12:31:12;;;;;;;11.90;4.57;;;15.60;99.90;;;;;;5042607;28;20421;-66
2022/10/12 12:33:41;;;;;;;15.07;5.20;;;15.60;99.90;;;;;;5032375;28;20425;-66
2022/10/12 12:36:11;;;;;;;12.23;4.93;;;15.50;99.90;;;;;;5043895;28;20427;-66
2022/10/12 12:38:40;;;;;;;18.90;4.77;;;15.60;99.90;;;;;;5051593;28;20443;-65
2022/10/12 12:41:17;;;;;;;9.70;4.63;;;15.70;99.90;;;;;;5050812;28;20444;-66
2022/10/12 12:43:49;;;;;;;8.43;3.60;;;15.60;99.90;;;;;;5048782;28;20412;-65
2022/10/12 12:46:15;;;;;;;9.53;4.73;;;15.60;99.90;;;;;;5050784;28;20459;-66